King Philippos — 9HA3023 — position and weather

sailwx.info

Track history (hours):
 
Tides and Currents Weather Stations Pressure Air Temp Water Temp Dewpoint Dewpoint Depression Visibility Wind Speed Wind Dir Waves Ship Positions

King Philippos

Last reported at 2015-Nov-08 02:24 UTC. Time now 2016-Feb-11 15:04 UTC.
Position S 38°27' E 138°04'.
Warning: this ship's position is months out of date.

Length 250 m; draft 8.4 m.

Type: Tanker. MMSI: 229046000.

Date/timePositionNaut miles runAvg speedWind from/ knotsBaromVisibWave heightAir tempDewpointWater temp
2015-Nov-08 02:24S 38°27' E 138°04'2312.2
2015-Nov-08 00:33S 38°30' E 138°33'2311.1
2015-Nov-07 22:30S 38°34' E 139°02'1312.0
2015-Nov-07 21:25S 38°36' E 139°18'1211.9
2015-Nov-07 20:26S 38°38' E 139°33'1511.8
2015-Nov-07 19:08S 38°41' E 139°52'811.6
2015-Nov-07 18:24S 38°42' E 140°03'1211.5
2015-Nov-07 17:24S 38°44' E 140°17'1011.4
2015-Nov-07 16:33S 38°46' E 140°30'1311.7
2015-Nov-07 15:27S 38°48' E 140°46'1111.9
2015-Nov-07 14:31S 38°49' E 141°00'1411.9
2015-Nov-07 13:19S 38°52' E 141°18'911.9
2015-Nov-07 12:33S 38°53' E 141°30'1211.7
2015-Nov-07 11:33S 38°55' E 141°45'1111.3
2015-Nov-07 10:33S 38°57' E 141°59'1111.3
2015-Nov-07 09:33S 38°59' E 142°13'1111.3
2015-Nov-07 08:33S 39°01' E 142°28'1111.2
2015-Nov-07 07:33S 39°03' E 142°42'1110.8
2015-Nov-07 06:33S 39°04' E 142°56'1110.9
2015-Nov-07 05:33S 39°06' E 143°10'1110.6
2015-Nov-07 04:29S 39°08' E 143°24'11010.8
2015-Nov-06 18:18S 39°28' E 145°43'810.3
2015-Nov-06 17:33S 39°29' E 145°53'1110.5
2015-Nov-06 16:33S 39°31' E 146°07'1110.8
2015-Nov-06 15:34S 39°33' E 146°20'1110.6
2015-Nov-06 14:33S 39°35' E 146°34'1010.3
2015-Nov-06 13:33S 39°37' E 146°47'1010.0
2015-Nov-06 12:34S 39°38' E 146°60'9 9.4
2015-Nov-06 11:33S 39°39' E 147°12'9 9.3
2015-Nov-06 10:33S 39°34' E 147°22'10 9.7
2015-Nov-06 09:31S 39°29' E 147°33'  
Track history (hours):
 
Tides and Currents Weather Stations Pressure Air Temp Water Temp Dewpoint Dewpoint Depression Visibility Wind Speed Wind Dir Waves Ship Positions

King Philippos

Last reported at 2015-Nov-08 02:24 UTC. Time now 2016-Feb-11 15:04 UTC.
Position S 38°27' E 138°04'.
Warning: this ship's position is months out of date.

Length 250 m; draft 8.4 m.

Type: Tanker. MMSI: 229046000.

Date/timePositionNaut miles runAvg speedWind from/ knotsBaromVisibWave heightAir tempDewpointWater temp
2015-Nov-08 02:24S 38°27' E 138°04'2312.2
2015-Nov-08 00:33S 38°30' E 138°33'2311.1
2015-Nov-07 22:30S 38°34' E 139°02'1312.0
2015-Nov-07 21:25S 38°36' E 139°18'1211.9
2015-Nov-07 20:26S 38°38' E 139°33'1511.8
2015-Nov-07 19:08S 38°41' E 139°52'811.6
2015-Nov-07 18:24S 38°42' E 140°03'1211.5
2015-Nov-07 17:24S 38°44' E 140°17'1011.4
2015-Nov-07 16:33S 38°46' E 140°30'1311.7
2015-Nov-07 15:27S 38°48' E 140°46'1111.9
2015-Nov-07 14:31S 38°49' E 141°00'1411.9
2015-Nov-07 13:19S 38°52' E 141°18'911.9
2015-Nov-07 12:33S 38°53' E 141°30'1211.7
2015-Nov-07 11:33S 38°55' E 141°45'1111.3
2015-Nov-07 10:33S 38°57' E 141°59'1111.3
2015-Nov-07 09:33S 38°59' E 142°13'1111.3
2015-Nov-07 08:33S 39°01' E 142°28'1111.2
2015-Nov-07 07:33S 39°03' E 142°42'1110.8
2015-Nov-07 06:33S 39°04' E 142°56'1110.9
2015-Nov-07 05:33S 39°06' E 143°10'1110.6
2015-Nov-07 04:29S 39°08' E 143°24'11010.8
2015-Nov-06 18:18S 39°28' E 145°43'810.3
2015-Nov-06 17:33S 39°29' E 145°53'1110.5
2015-Nov-06 16:33S 39°31' E 146°07'1110.8
2015-Nov-06 15:34S 39°33' E 146°20'1110.6
2015-Nov-06 14:33S 39°35' E 146°34'1010.3
2015-Nov-06 13:33S 39°37' E 146°47'1010.0
2015-Nov-06 12:34S 39°38' E 146°60'9 9.4
2015-Nov-06 11:33S 39°39' E 147°12'9 9.3
2015-Nov-06 10:33S 39°34' E 147°22'10 9.7
2015-Nov-06 09:31S 39°29' E 147°33'  

Dump ship's entire track history